createdAt,value
2023-05-24T00:02:06.975Z,100048.78
2023-05-24T00:05:11.042Z,100042.47
2023-05-24T00:08:16.066Z,100038.13
2023-05-24T00:11:19.084Z,100035.38
2023-05-24T00:14:21.858Z,100041.03
2023-05-24T00:17:25.271Z,100058.06
2023-05-24T00:20:27.921Z,100055.88
2023-05-24T00:23:31.107Z,100067.16
2023-05-24T00:26:33.765Z,100073.72
2023-05-24T00:29:36.894Z,100081.13
2023-05-24T00:32:39.651Z,100081.19
2023-05-24T00:35:42.661Z,100070.28
2023-05-24T00:38:45.454Z,100084.22
2023-05-24T00:41:48.409Z,100072.25
2023-05-24T00:44:51.152Z,100062.75
2023-05-24T00:47:55.155Z,100068.50
2023-05-24T00:50:57.816Z,100065.28
2023-05-24T00:54:01.097Z,100059.78
2023-05-24T00:57:04.550Z,100051.06
2023-05-24T01:00:09.132Z,100059.00
2023-05-24T01:03:11.904Z,100069.03
2023-05-24T01:06:16.342Z,100071.25
2023-05-24T01:09:37.970Z,100064.16
2023-05-24T01:13:06.082Z,100070.34
2023-05-24T01:16:15.644Z,100070.81
2023-05-24T01:20:00.082Z,100064.13
2023-05-24T01:23:18.658Z,100067.25
2023-05-24T01:26:41.576Z,100074.47
2023-05-24T01:29:44.725Z,100072.53
2023-05-24T01:32:48.259Z,100069.34
2023-05-24T01:35:51.107Z,100075.47
2023-05-24T01:38:54.326Z,100077.87
2023-05-24T01:42:11.684Z,100077.22
2023-05-24T01:45:29.892Z,100079.19
2023-05-24T01:48:48.963Z,100081.25
2023-05-24T01:51:59.269Z,100082.81
2023-05-24T01:55:03.962Z,100081.59
2023-05-24T01:58:09.918Z,100065.91
2023-05-24T02:01:14.193Z,100083.19
2023-05-24T02:04:18.310Z,100081.56
2023-05-24T02:07:21.066Z,100078.72
2023-05-24T02:10:24.121Z,100086.66
2023-05-24T02:13:26.850Z,100085.94
2023-05-24T02:16:30.831Z,100090.34
2023-05-24T02:19:36.927Z,100091.13
2023-05-24T02:22:41.657Z,100099.75
2023-05-24T02:25:44.699Z,100100.47
2023-05-24T02:28:48.447Z,100095.38
2023-05-24T02:31:56.433Z,100099.66
2023-05-24T02:34:59.416Z,100092.19
2023-05-24T02:38:03.911Z,100097.00
2023-05-24T02:41:06.608Z,100093.28
2023-05-24T02:44:09.586Z,100097.47
2023-05-24T02:47:12.271Z,100098.22
2023-05-24T02:50:15.443Z,100095.06
2023-05-24T02:53:18.071Z,100099.75
2023-05-24T02:56:22.161Z,100100.94
2023-05-24T02:59:25.570Z,100099.41
2023-05-24T03:02:29.415Z,100101.91
2023-05-24T03:05:32.808Z,100094.81
2023-05-24T03:08:37.499Z,100099.50
2023-05-24T03:11:40.761Z,100109.69
2023-05-24T03:14:44.300Z,100108.91
2023-05-24T03:17:47.247Z,100093.63
2023-05-24T03:20:50.881Z,100105.88
2023-05-24T03:23:53.594Z,100115.75
2023-05-24T03:26:56.575Z,100108.97
2023-05-24T03:29:59.221Z,100115.37
2023-05-24T03:33:03.265Z,100112.06
2023-05-24T03:36:09.187Z,100116.13
2023-05-24T03:39:12.197Z,100116.75
2023-05-24T03:42:16.022Z,100119.50
2023-05-24T03:45:27.005Z,100119.91
2023-05-24T03:48:33.484Z,100119.91
2023-05-24T03:51:37.206Z,100132.94
2023-05-24T03:54:39.932Z,100129.59
2023-05-24T03:57:43.090Z,100131.94
2023-05-24T04:00:45.923Z,100131.06
2023-05-24T04:03:49.306Z,100133.53
2023-05-24T04:06:51.959Z,100134.28
2023-05-24T04:09:55.067Z,100141.97
2023-05-24T04:12:57.871Z,100144.78
2023-05-24T04:16:01.041Z,100145.53
2023-05-24T04:19:04.410Z,100143.59
2023-05-24T04:22:07.410Z,100156.09
2023-05-24T04:25:12.311Z,100161.47
2023-05-24T04:28:15.525Z,100169.03
2023-05-24T04:31:18.264Z,100172.94
2023-05-24T04:34:22.538Z,100174.16
2023-05-24T04:37:26.066Z,100173.69
2023-05-24T04:40:29.250Z,100178.03
2023-05-24T04:43:32.928Z,100179.91
2023-05-24T04:46:36.333Z,100185.13
2023-05-24T04:49:39.715Z,100194.13
2023-05-24T04:52:42.662Z,100192.56
2023-05-24T04:55:45.336Z,100193.50
2023-05-24T04:58:48.368Z,100198.91
2023-05-24T05:01:51.085Z,100192.53
2023-05-24T05:04:54.077Z,100197.75
2023-05-24T05:07:57.255Z,100178.03
2023-05-24T05:11:00.281Z,100193.59
2023-05-24T05:14:03.037Z,100184.19
2023-05-24T05:17:06.075Z,100196.66
2023-05-24T05:20:09.175Z,100196.97
2023-05-24T05:23:12.289Z,100196.34
2023-05-24T05:26:14.973Z,100209.63
2023-05-24T05:29:17.931Z,100210.72
2023-05-24T05:32:20.888Z,100209.66
2023-05-24T05:35:23.957Z,100197.25
2023-05-24T05:38:26.615Z,100214.47
2023-05-24T05:41:29.602Z,100219.38
2023-05-24T05:44:32.201Z,100218.53
2023-05-24T05:47:35.672Z,100223.00
2023-05-24T05:50:38.332Z,100222.44
2023-05-24T05:53:41.264Z,100226.81
2023-05-24T05:56:46.908Z,100217.75
2023-05-24T05:59:50.789Z,100226.56
2023-05-24T06:02:53.876Z,100233.97
2023-05-24T06:05:57.027Z,100230.06
2023-05-24T06:09:00.778Z,100224.41
2023-05-24T06:12:04.458Z,100229.75
2023-05-24T06:15:08.298Z,100229.66
2023-05-24T06:18:11.516Z,100229.03
2023-05-24T06:21:15.327Z,100237.50
2023-05-24T06:24:20.827Z,100234.13
2023-05-24T06:27:23.761Z,100237.72
2023-05-24T06:30:26.897Z,100235.53
2023-05-24T06:33:30.064Z,100241.59
2023-05-24T06:36:43.201Z,100242.97
2023-05-24T06:39:46.260Z,100241.25
2023-05-24T06:42:49.209Z,100248.28
2023-05-24T06:45:51.898Z,100246.03
2023-05-24T06:48:55.421Z,100252.88
2023-05-24T06:51:58.128Z,100246.94
2023-05-24T06:55:01.135Z,100251.34
2023-05-24T06:58:04.093Z,100261.75
2023-05-24T07:01:07.121Z,100263.03
2023-05-24T07:04:10.154Z,100253.81
2023-05-24T07:07:16.806Z,100256.84
2023-05-24T07:10:19.530Z,100257.97
2023-05-24T07:13:23.009Z,100257.91
2023-05-24T07:16:25.963Z,100262.72
2023-05-24T07:19:29.841Z,100265.28
2023-05-24T07:22:32.746Z,100259.25
2023-05-24T07:25:35.696Z,100269.41
2023-05-24T07:28:40.563Z,100263.28
2023-05-24T07:31:43.529Z,100263.41
2023-05-24T07:34:46.235Z,100277.25
2023-05-24T07:37:49.160Z,100271.56
2023-05-24T07:40:52.904Z,100277.06
2023-05-24T07:43:56.146Z,100275.00
2023-05-24T07:46:59.106Z,100271.41
2023-05-24T07:50:02.045Z,100274.53
2023-05-24T07:53:05.438Z,100273.88
2023-05-24T07:56:09.977Z,100261.72
2023-05-24T07:59:12.961Z,100277.00
2023-05-24T08:02:16.921Z,100277.69
2023-05-24T08:05:20.044Z,100292.28
2023-05-24T08:08:23.172Z,100295.31
2023-05-24T08:11:26.704Z,100302.56
2023-05-24T08:14:29.277Z,100297.84
2023-05-24T08:17:32.439Z,100302.00
2023-05-24T08:20:36.990Z,100299.94
2023-05-24T08:23:40.272Z,100292.56
2023-05-24T08:26:43.910Z,100309.97
2023-05-24T08:29:46.890Z,100302.91
2023-05-24T08:32:49.479Z,100304.31
2023-05-24T08:35:52.534Z,100295.31
2023-05-24T08:38:55.290Z,100302.22
2023-05-24T08:42:09.162Z,100311.84
2023-05-24T08:45:14.097Z,100319.50
2023-05-24T08:48:18.653Z,100323.75
2023-05-24T08:51:21.956Z,100323.53
2023-05-24T08:54:25.168Z,100322.81
2023-05-24T08:57:28.503Z,100321.41
2023-05-24T09:00:31.742Z,100324.19
2023-05-24T09:03:36.868Z,100343.88
2023-05-24T09:06:40.143Z,100344.88
2023-05-24T09:09:47.163Z,100342.13
2023-05-24T09:12:57.955Z,100351.63
2023-05-24T09:16:01.926Z,100351.34
2023-05-24T09:19:05.007Z,100358.34
2023-05-24T09:22:07.812Z,100355.25
2023-05-24T09:25:14.009Z,100356.63
2023-05-24T09:28:18.159Z,100355.06
2023-05-24T09:31:33.199Z,100357.72
2023-05-24T09:34:40.377Z,100354.50
2023-05-24T09:37:43.254Z,100362.16
2023-05-24T09:40:46.031Z,100358.78
2023-05-24T09:43:50.236Z,100355.44
2023-05-24T09:46:53.007Z,100361.84
2023-05-24T09:49:56.051Z,100361.19
2023-05-24T09:52:58.808Z,100363.03
2023-05-24T09:56:05.548Z,100368.31
2023-05-24T09:59:08.944Z,100365.03
2023-05-24T10:02:12.651Z,100354.56
2023-05-24T10:05:15.813Z,100355.03
2023-05-24T10:08:19.471Z,100347.72
2023-05-24T10:11:22.970Z,100356.56
2023-05-24T10:14:26.982Z,100361.84
2023-05-24T10:17:30.209Z,100356.75
2023-05-24T10:20:32.918Z,100358.84
2023-05-24T10:23:38.565Z,100345.16
2023-05-24T10:26:42.696Z,100348.87
2023-05-24T10:30:12.991Z,100347.72
2023-05-24T10:33:18.455Z,100353.44
2023-05-24T10:36:21.634Z,100349.31
2023-05-24T10:39:25.755Z,100354.34
2023-05-24T10:42:32.461Z,100355.59
2023-05-24T10:45:40.605Z,100347.38
2023-05-24T10:48:43.782Z,100338.69
2023-05-24T10:51:46.804Z,100348.38
2023-05-24T10:55:10.765Z,100337.47
2023-05-24T10:58:13.401Z,100335.81
2023-05-24T11:01:27.169Z,100332.94
2023-05-24T11:04:38.611Z,100324.16
2023-05-24T11:07:45.516Z,100327.84
2023-05-24T11:10:48.270Z,100335.56
2023-05-24T11:13:57.949Z,100325.09
2023-05-24T11:17:01.043Z,100321.00
2023-05-24T11:20:05.567Z,100324.28
2023-05-24T11:23:09.682Z,100315.22
2023-05-24T11:26:12.746Z,100312.16
2023-05-24T11:29:21.258Z,100296.03
2023-05-24T11:32:25.234Z,100298.13
2023-05-24T11:35:28.343Z,100300.03
2023-05-24T11:38:31.975Z,100303.59
2023-05-24T11:41:38.897Z,100293.94
2023-05-24T11:44:42.073Z,100301.44
2023-05-24T11:47:44.883Z,100300.69
2023-05-24T11:50:50.369Z,100297.25
2023-05-24T11:53:54.835Z,100283.31
2023-05-24T11:56:58.192Z,100274.50
2023-05-24T12:00:01.046Z,100281.78
2023-05-24T12:03:07.625Z,100278.69
2023-05-24T12:06:10.776Z,100273.06
2023-05-24T12:09:16.713Z,100282.19
2023-05-24T12:12:27.089Z,100268.44
2023-05-24T12:15:37.003Z,100267.09
2023-05-24T12:18:45.824Z,100269.66
2023-05-24T12:21:58.040Z,100269.69
2023-05-24T12:25:01.228Z,100268.44
2023-05-24T12:28:04.130Z,100263.28
2023-05-24T12:31:07.288Z,100262.47
2023-05-24T12:34:13.985Z,100249.12
2023-05-24T12:37:18.651Z,100249.25
2023-05-24T12:40:23.737Z,100246.41
2023-05-24T12:43:26.908Z,100249.91
2023-05-24T12:46:29.624Z,100246.87
2023-05-24T12:49:33.086Z,100246.34
2023-05-24T12:52:35.702Z,100238.84
2023-05-24T12:55:40.332Z,100241.19
2023-05-24T12:58:42.988Z,100235.34
2023-05-24T13:01:50.739Z,100233.91
2023-05-24T13:04:53.484Z,100236.06
2023-05-24T13:07:57.518Z,100230.00
2023-05-24T13:11:00.274Z,100229.56
2023-05-24T13:14:03.893Z,100230.09
2023-05-24T13:17:07.718Z,100227.50
2023-05-24T13:20:12.014Z,100233.13
2023-05-24T13:23:14.827Z,100226.19
2023-05-24T13:26:18.479Z,100224.94
2023-05-24T13:29:36.612Z,100228.56
2023-05-24T13:32:45.405Z,100227.09
2023-05-24T13:35:48.296Z,100218.31
2023-05-24T13:38:59.489Z,100217.41
2023-05-24T13:42:14.755Z,100202.94
2023-05-24T13:45:17.969Z,100210.47
2023-05-24T13:48:20.825Z,100209.13
2023-05-24T13:51:24.367Z,100197.88
2023-05-24T13:54:28.058Z,100182.59
2023-05-24T13:57:46.898Z,100178.28
2023-05-24T14:00:53.044Z,100172.34
2023-05-24T14:03:56.239Z,100182.91
2023-05-24T14:06:58.992Z,100165.13
2023-05-24T14:10:01.912Z,100176.25
2023-05-24T14:13:28.997Z,100155.09
2023-05-24T14:16:30.176Z,100175.09
2023-05-24T14:19:34.948Z,100148.84
2023-05-24T14:22:37.998Z,100175.19
2023-05-24T14:25:42.433Z,100154.59
2023-05-24T14:28:45.794Z,100167.69
2023-05-24T14:31:48.595Z,100188.84
2023-05-24T14:34:53.399Z,100177.69
2023-05-24T14:37:57.502Z,100177.16
2023-05-24T14:41:01.693Z,100157.34
2023-05-24T14:44:04.499Z,100156.56
2023-05-24T14:47:07.652Z,100153.81
2023-05-24T14:50:11.060Z,100166.59
2023-05-24T14:53:14.291Z,100184.41
2023-05-24T14:56:17.774Z,100181.12
2023-05-24T14:59:20.843Z,100169.25
2023-05-24T15:02:23.590Z,100155.91
2023-05-24T15:05:26.613Z,100139.91
2023-05-24T15:08:29.430Z,100175.53
2023-05-24T15:11:33.218Z,100166.78
2023-05-24T15:14:35.907Z,100168.34
2023-05-24T15:17:39.067Z,100155.03
2023-05-24T15:20:41.941Z,100150.81
2023-05-24T15:23:45.142Z,100171.47
2023-05-24T15:26:48.511Z,100168.03
2023-05-24T15:29:54.598Z,100167.72
2023-05-24T15:32:57.382Z,100171.34
2023-05-24T15:36:00.374Z,100177.88
2023-05-24T15:39:03.219Z,100175.91
2023-05-24T15:42:06.563Z,100173.13
2023-05-24T15:45:09.952Z,100170.28
2023-05-24T15:48:13.513Z,100158.66
2023-05-24T15:54:22.191Z,100161.28
2023-05-24T15:57:24.943Z,100178.84
2023-05-24T16:00:28.004Z,100178.09
2023-05-24T16:03:31.059Z,100176.66
2023-05-24T16:06:33.807Z,100190.69
2023-05-24T16:09:36.979Z,100184.41
2023-05-24T16:12:39.812Z,100179.56
2023-05-24T16:15:43.356Z,100188.06
2023-05-24T16:18:46.097Z,100194.72
2023-05-24T16:21:49.010Z,100196.63
2023-05-24T16:24:51.779Z,100192.09
2023-05-24T16:27:56.393Z,100182.91
2023-05-24T16:31:00.267Z,100200.94
2023-05-24T16:34:03.347Z,100201.53
2023-05-24T16:37:06.263Z,100208.38
2023-05-24T16:40:09.591Z,100211.44
2023-05-24T16:43:12.222Z,100202.75
2023-05-24T16:46:15.249Z,100204.62
2023-05-24T16:49:18.057Z,100184.53
2023-05-24T16:52:21.028Z,100195.31
2023-05-24T16:55:23.729Z,100201.66
2023-05-24T16:58:31.109Z,100219.09
2023-05-24T17:01:33.870Z,100222.06
2023-05-24T17:04:36.960Z,100235.28
2023-05-24T17:07:39.749Z,100237.78
2023-05-24T17:10:43.490Z,100237.63
2023-05-24T17:13:46.950Z,100207.13
2023-05-24T17:16:49.922Z,100232.63
2023-05-24T17:19:53.174Z,100235.19
2023-05-24T17:22:56.384Z,100241.16
2023-05-24T17:26:00.996Z,100247.41
2023-05-24T17:29:04.067Z,100248.78
2023-05-24T17:32:06.925Z,100238.03
2023-05-24T17:35:10.114Z,100257.63
2023-05-24T17:38:12.860Z,100235.41
2023-05-24T17:41:16.200Z,100268.34
2023-05-24T17:44:18.932Z,100262.44
2023-05-24T17:47:22.188Z,100259.59
2023-05-24T17:50:25.035Z,100249.56
2023-05-24T17:53:33.496Z,100285.19
2023-05-24T17:56:36.142Z,100275.31
2023-05-24T17:59:39.219Z,100262.34
2023-05-24T18:02:42.093Z,100257.84
2023-05-24T18:05:45.639Z,100275.06
2023-05-24T18:08:48.465Z,100299.06
2023-05-24T18:11:51.750Z,100291.97
2023-05-24T18:14:55.170Z,100308.13
2023-05-24T18:17:58.301Z,100305.50
2023-05-24T18:21:01.261Z,100317.56
2023-05-24T18:24:04.468Z,100293.47
2023-05-24T18:27:07.530Z,100302.97
2023-05-24T18:30:11.105Z,100326.50
2023-05-24T18:33:13.880Z,100295.53
2023-05-24T18:36:16.938Z,100339.03
2023-05-24T18:39:19.615Z,100341.75
2023-05-24T18:42:22.570Z,100324.09
2023-05-24T18:45:25.292Z,100345.06
2023-05-24T18:48:28.256Z,100351.63
2023-05-24T18:51:31.018Z,100346.69
2023-05-24T18:54:34.063Z,100361.63
2023-05-24T18:57:37.828Z,100359.16
2023-05-24T19:00:41.032Z,100361.22
2023-05-24T19:03:43.873Z,100373.31
2023-05-24T19:06:46.948Z,100376.22
2023-05-24T19:09:49.627Z,100370.16
2023-05-24T19:12:52.743Z,100384.00
2023-05-24T19:15:56.633Z,100397.31
2023-05-24T19:18:59.632Z,100399.06
2023-05-24T19:22:02.271Z,100397.66
2023-05-24T19:25:05.693Z,100396.81
2023-05-24T19:28:08.377Z,100397.22
2023-05-24T19:31:11.334Z,100404.88
2023-05-24T19:34:13.962Z,100405.66
2023-05-24T19:37:17.067Z,100403.19
2023-05-24T19:40:20.408Z,100402.94
2023-05-24T19:43:23.481Z,100411.88
2023-05-24T19:46:26.883Z,100401.75
2023-05-24T19:49:30.023Z,100408.31
2023-05-24T19:52:33.529Z,100396.03
2023-05-24T19:55:36.698Z,100403.06
2023-05-24T19:58:39.430Z,100402.66
2023-05-24T20:01:42.462Z,100399.66
2023-05-24T20:04:45.508Z,100388.69
2023-05-24T20:07:48.247Z,100405.41
2023-05-24T20:10:51.449Z,100408.59
2023-05-24T20:13:56.155Z,100410.00
2023-05-24T20:16:59.680Z,100412.41
2023-05-24T20:20:03.129Z,100397.06
2023-05-24T20:23:06.114Z,100409.66
2023-05-24T20:26:08.865Z,100410.50
2023-05-24T20:29:12.155Z,100388.63
2023-05-24T20:32:14.917Z,100407.81
2023-05-24T20:35:18.093Z,100401.62
2023-05-24T20:38:20.931Z,100400.75
2023-05-24T20:41:24.101Z,100391.59
2023-05-24T20:44:26.736Z,100395.00
2023-05-24T20:47:30.443Z,100399.63
2023-05-24T20:50:33.320Z,100368.19
2023-05-24T20:53:37.423Z,100416.66
2023-05-24T20:56:40.259Z,100407.47
2023-05-24T20:59:43.343Z,100390.09
2023-05-24T21:02:46.146Z,100405.53
2023-05-24T21:05:49.252Z,100400.22
2023-05-24T21:08:52.057Z,100409.34
2023-05-24T21:11:55.053Z,100369.31
2023-05-24T21:14:57.869Z,100384.38
2023-05-24T21:18:00.845Z,100398.69
2023-05-24T21:21:03.948Z,100414.53
2023-05-24T21:24:07.114Z,100418.84
2023-05-24T21:27:09.812Z,100418.50
2023-05-24T21:30:13.449Z,100414.34
2023-05-24T21:33:16.696Z,100410.22
2023-05-24T21:36:19.654Z,100435.81
2023-05-24T21:39:22.511Z,100428.75
2023-05-24T21:42:25.446Z,100414.09
2023-05-24T21:45:28.305Z,100417.63
2023-05-24T21:48:31.197Z,100410.53
2023-05-24T21:51:33.889Z,100427.59
2023-05-24T21:54:36.830Z,100424.09
2023-05-24T21:57:39.687Z,100426.81
2023-05-24T22:00:42.807Z,100433.13
2023-05-24T22:03:45.968Z,100431.59
2023-05-24T22:06:48.687Z,100435.50
2023-05-24T22:09:51.645Z,100434.13
2023-05-24T22:12:54.468Z,100437.31
2023-05-24T22:15:57.696Z,100446.44
2023-05-24T22:19:01.076Z,100427.53
2023-05-24T22:22:04.811Z,100438.13
2023-05-24T22:25:08.851Z,100449.09
2023-05-24T22:28:11.809Z,100455.47
2023-05-24T22:31:15.815Z,100443.56
2023-05-24T22:34:29.185Z,100449.81
2023-05-24T22:37:32.511Z,100450.72
2023-05-24T22:40:36.873Z,100450.84
2023-05-24T22:43:39.540Z,100457.09
2023-05-24T22:46:42.775Z,100462.66
2023-05-24T22:49:45.394Z,100454.72
2023-05-24T22:52:48.693Z,100450.00
2023-05-24T22:55:51.577Z,100450.81
2023-05-24T22:58:54.531Z,100448.50
2023-05-24T23:01:57.271Z,100443.87
2023-05-24T23:05:00.505Z,100453.41
2023-05-24T23:08:03.727Z,100440.75
2023-05-24T23:11:10.607Z,100454.50
2023-05-24T23:14:14.421Z,100439.91
2023-05-24T23:21:46.475Z,100459.56
2023-05-24T23:24:49.593Z,100455.81
2023-05-24T23:27:52.318Z,100436.91
2023-05-24T23:30:55.642Z,100458.97
2023-05-24T23:33:58.478Z,100443.97
2023-05-24T23:37:02.185Z,100441.72
2023-05-24T23:40:06.716Z,100443.28
2023-05-24T23:43:09.760Z,100448.81
2023-05-24T23:46:12.490Z,100470.09
2023-05-24T23:49:15.567Z,100465.00
2023-05-24T23:52:18.763Z,100455.19
2023-05-24T23:55:22.799Z,100469.72
2023-05-24T23:58:25.683Z,100471.75
